Time;durP1;ratioP1;P1;durP2;ratioP2;P2;SDS_P1;SDS_P2;PMS_P1;PMS_P2;Temp;Humidity;BMP_temperature;BMP_pressure;BME280_temperature;BME280_humidity;BME280_pressure;Samples;Min_cycle;Max_cycle;Signal;HPM_P1;HPM_P2
2021/05/26 00:00:26;;;;;;;1.60;1.13;;;6.60;99.90;;;;;;5025900;28;20247;-80
2021/05/26 00:02:52;;;;;;;3.10;1.30;;;6.70;99.90;;;;;;5025528;28;20225;-80
2021/05/26 00:05:17;;;;;;;2.53;1.40;;;6.60;99.90;;;;;;5025890;28;20174;-80
2021/05/26 00:07:43;;;;;;;2.50;1.20;;;6.60;99.90;;;;;;5025114;28;20207;-80
2021/05/26 00:10:10;;;;;;;1.63;1.20;;;6.60;99.90;;;;;;5025583;28;20598;-80
2021/05/26 00:12:35;;;;;;;2.60;1.33;;;6.60;99.90;;;;;;5025950;28;20260;-80
2021/05/26 00:15:01;;;;;;;2.20;1.20;;;6.60;99.90;;;;;;5024585;28;20179;-80
2021/05/26 00:17:28;;;;;;;2.83;1.47;;;6.60;99.90;;;;;;5040346;28;20242;-80
2021/05/26 00:19:55;;;;;;;3.50;2.10;;;6.60;99.90;;;;;;5025478;28;20175;-80
2021/05/26 00:22:20;;;;;;;6.13;2.67;;;6.60;99.90;;;;;;5024609;28;20426;-80
2021/05/26 00:24:46;;;;;;;8.53;4.37;;;6.60;99.90;;;;;;5024442;28;20541;-80
2021/05/26 00:27:12;;;;;;;10.00;4.53;;;;;;;;;;5024806;28;20676;-80
2021/05/26 00:29:38;;;;;;;14.10;7.10;;;6.70;99.90;;;;;;5024171;28;20246;-80
2021/05/26 00:32:04;;;;;;;16.20;7.67;;;6.70;99.90;;;;;;5025735;28;20178;-80
2021/05/26 00:34:29;;;;;;;27.07;9.83;;;6.70;99.90;;;;;;5025840;28;20209;-80
2021/05/26 00:36:55;;;;;;;9.60;4.20;;;6.70;99.90;;;;;;5025153;28;20418;-80
2021/05/26 00:39:21;;;;;;;40.63;14.57;;;6.70;99.90;;;;;;5026180;28;20206;-80
2021/05/26 00:41:46;;;;;;;35.93;11.67;;;6.70;99.90;;;;;;5025418;28;20182;-80
2021/05/26 00:44:16;;;;;;;30.10;11.47;;;6.70;99.90;;;;;;5025650;28;20207;-80
2021/05/26 00:46:46;;;;;;;24.53;10.27;;;6.70;99.90;;;;;;5024669;28;20215;-79
2021/05/26 00:49:11;;;;;;;22.53;9.47;;;6.70;99.90;;;;;;5022548;28;20425;-80
2021/05/26 00:51:38;;;;;;;13.90;5.47;;;6.70;99.90;;;;;;5024419;28;20196;-80
2021/05/26 00:54:04;;;;;;;7.10;4.53;;;6.80;99.90;;;;;;5022055;28;20209;-79
2021/05/26 00:56:32;;;;;;;7.93;4.27;;;6.90;99.90;;;;;;5023924;28;20231;-79
2021/05/26 00:58:57;;;;;;;9.60;5.40;;;6.90;99.90;;;;;;5023323;28;20489;-80
2021/05/26 01:01:23;;;;;;;9.37;5.00;;;7.00;99.90;;;;;;5022149;28;20226;-80
2021/05/26 01:03:49;;;;;;;5.73;3.17;;;7.00;99.90;;;;;;5030483;28;20213;-80
2021/05/26 01:06:14;;;;;;;14.47;8.73;;;7.10;99.90;;;;;;5030557;28;20230;-80
2021/05/26 01:08:40;;;;;;;10.40;5.13;;;7.20;99.90;;;;;;5029049;28;20179;-80
2021/05/26 01:11:06;;;;;;;5.93;3.70;;;7.30;99.90;;;;;;5029142;28;20171;-80
2021/05/26 01:13:33;;;;;;;3.73;2.57;;;7.40;99.90;;;;;;5026771;28;20207;-80
2021/05/26 01:15:59;;;;;;;6.50;3.57;;;7.50;99.90;;;;;;5028458;28;20414;-80
2021/05/26 01:18:25;;;;;;;7.17;3.97;;;;;;;;;;5028319;28;20425;-80
2021/05/26 01:20:52;;;;;;;7.60;4.17;;;7.60;99.90;;;;;;5028427;28;20411;-80
2021/05/26 01:23:18;;;;;;;7.90;4.27;;;7.60;99.90;;;;;;5027103;28;20441;-80
2021/05/26 01:25:56;;;;;;;5.40;3.43;;;7.70;99.90;;;;;;5028057;28;20250;-80
2021/05/26 01:28:22;;;;;;;4.73;2.63;;;7.60;99.90;;;;;;5027591;28;20313;-80
2021/05/26 01:30:48;;;;;;;4.23;2.20;;;7.50;99.90;;;;;;5026997;28;20197;-80
2021/05/26 01:33:14;;;;;;;7.93;2.80;;;7.50;99.90;;;;;;5027979;28;20230;-80
2021/05/26 01:35:42;;;;;;;2.10;1.37;;;7.40;99.90;;;;;;5028515;28;20657;-80
2021/05/26 01:38:22;;;;;;;3.67;2.13;;;7.40;99.90;;;;;;5026782;28;20447;-80
2021/05/26 01:40:49;;;;;;;1.67;1.03;;;7.30;99.90;;;;;;5027631;28;20274;-80
2021/05/26 01:43:15;;;;;;;3.73;1.20;;;7.30;99.90;;;;;;5028220;28;20195;-80
2021/05/26 01:45:41;;;;;;;2.13;1.20;;;7.30;99.90;;;;;;5028065;28;20501;-80
2021/05/26 01:48:07;;;;;;;1.17;1.07;;;7.30;99.90;;;;;;5026470;28;20482;-80
2021/05/26 01:50:34;;;;;;;6.70;1.10;;;7.40;99.90;;;;;;5028737;28;20190;-79
2021/05/26 01:53:05;;;;;;;2.57;1.17;;;7.40;99.90;;;;;;5027517;28;20950;-80
2021/05/26 01:55:32;;;;;;;3.50;1.30;;;7.50;99.90;;;;;;5027110;28;20179;-80
2021/05/26 01:57:59;;;;;;;1.30;1.00;;;7.50;99.90;;;;;;5027253;28;20430;-80
2021/05/26 02:00:24;;;;;;;2.90;1.30;;;7.60;99.90;;;;;;5027720;28;20448;-80
2021/05/26 02:02:50;;;;;;;2.03;1.73;;;7.70;99.90;;;;;;5028818;28;20819;-80
2021/05/26 02:05:17;;;;;;;2.50;0.90;;;7.70;99.90;;;;;;5027337;28;20225;-80
2021/05/26 02:07:43;;;;;;;1.17;0.97;;;7.70;99.90;;;;;;5027407;28;20231;-80
2021/05/26 02:10:12;;;;;;;1.23;1.13;;;7.70;99.90;;;;;;5027948;28;20179;-80
2021/05/26 02:12:39;;;;;;;2.30;1.10;;;7.70;99.90;;;;;;5029734;28;20410;-80
2021/05/26 02:15:08;;;;;;;3.60;1.00;;;7.70;99.90;;;;;;5043645;28;20202;-80
2021/05/26 02:17:34;;;;;;;2.37;1.57;;;7.80;99.90;;;;;;5030047;28;20187;-80
2021/05/26 02:20:00;;;;;;;3.07;1.10;;;7.80;99.90;;;;;;5029277;28;20426;-80
2021/05/26 02:22:26;;;;;;;1.70;0.97;;;7.80;99.90;;;;;;5034538;28;20246;-80
2021/05/26 02:24:52;;;;;;;0.90;0.90;;;7.70;99.90;;;;;;5039022;28;20262;-80
2021/05/26 02:27:18;;;;;;;2.63;1.20;;;7.70;99.90;;;;;;5040208;28;20206;-80
2021/05/26 02:29:44;;;;;;;2.00;0.97;;;7.70;99.90;;;;;;5026564;28;20218;-80
2021/05/26 02:32:10;;;;;;;2.30;0.90;;;7.60;99.90;;;;;;5027171;28;20182;-80
2021/05/26 02:34:36;;;;;;;1.20;1.10;;;7.60;99.90;;;;;;5026956;28;20295;-80
2021/05/26 02:37:03;;;;;;;1.43;0.90;;;7.60;99.90;;;;;;5027917;28;20418;-80
2021/05/26 02:39:29;;;;;;;1.37;0.97;;;7.60;99.90;;;;;;5026388;28;20175;-80
2021/05/26 02:41:55;;;;;;;0.60;0.60;;;7.60;99.90;;;;;;5026777;28;20437;-80
2021/05/26 02:44:21;;;;;;;1.63;1.00;;;7.50;99.90;;;;;;5025485;28;20478;-80
2021/05/26 02:46:47;;;;;;;3.50;0.93;;;7.40;99.90;;;;;;5026401;28;20207;-80
2021/05/26 02:49:14;;;;;;;1.07;0.70;;;7.40;99.90;;;;;;5026501;28;20190;-80
2021/05/26 02:51:40;;;;;;;1.00;0.83;;;7.30;99.90;;;;;;5026681;28;20414;-80
2021/05/26 02:54:06;;;;;;;0.80;0.80;;;7.20;99.90;;;;;;5026643;28;20473;-80
2021/05/26 02:56:33;;;;;;;2.33;0.97;;;7.20;99.90;;;;;;5027517;28;20225;-80
2021/05/26 02:59:00;;;;;;;1.47;0.83;;;7.20;99.90;;;;;;5026747;28;20183;-80
2021/05/26 03:01:25;;;;;;;1.77;1.10;;;7.10;99.90;;;;;;5027405;28;20413;-80
2021/05/26 03:03:51;;;;;;;3.33;1.37;;;7.00;99.90;;;;;;5029026;28;20469;-79
2021/05/26 03:06:17;;;;;;;2.97;0.90;;;7.00;99.90;;;;;;5025699;28;20214;-80
2021/05/26 03:08:43;;;;;;;2.67;1.40;;;7.00;99.90;;;;;;5024631;28;20171;-80
2021/05/26 03:11:09;;;;;;;1.33;1.00;;;6.90;99.90;;;;;;5023517;28;20175;-80
2021/05/26 03:13:34;;;;;;;1.20;1.10;;;6.90;99.90;;;;;;5030480;28;20195;-80
2021/05/26 03:16:02;;;;;;;0.97;0.97;;;6.90;99.90;;;;;;5025264;28;20179;-80
2021/05/26 03:18:29;;;;;;;2.07;1.13;;;6.80;99.90;;;;;;5026152;28;20522;-80
2021/05/26 03:20:55;;;;;;;4.17;1.37;;;6.80;99.90;;;;;;5025177;28;20433;-80
2021/05/26 03:23:20;;;;;;;2.33;1.03;;;6.80;99.90;;;;;;5025343;28;20437;-80
2021/05/26 03:25:47;;;;;;;1.33;1.23;;;6.80;99.90;;;;;;5023016;28;20547;-80
2021/05/26 03:28:16;;;;;;;2.60;1.27;;;6.80;99.90;;;;;;5026350;28;20175;-80
2021/05/26 03:30:43;;;;;;;2.07;1.00;;;6.80;99.90;;;;;;5025973;28;20414;-80
2021/05/26 03:33:12;;;;;;;1.17;0.90;;;6.80;99.90;;;;;;5026140;28;20457;-80
2021/05/26 03:35:39;;;;;;;2.70;1.20;;;6.80;99.90;;;;;;5025346;28;20786;-80
2021/05/26 03:38:05;;;;;;;2.40;1.00;;;6.80;99.90;;;;;;5026221;28;20418;-80
2021/05/26 03:40:31;;;;;;;1.87;1.30;;;6.80;99.90;;;;;;5025764;28;20410;-80
2021/05/26 03:42:57;;;;;;;5.13;1.00;;;6.80;99.90;;;;;;5024877;28;20800;-80
2021/05/26 03:45:23;;;;;;;1.30;1.07;;;6.80;99.90;;;;;;5026012;28;20442;-80
2021/05/26 03:47:49;;;;;;;3.73;1.33;;;6.80;99.90;;;;;;5041772;28;20202;-80
2021/05/26 03:50:14;;;;;;;1.20;0.90;;;6.80;99.90;;;;;;5025775;28;20210;-79
2021/05/26 03:52:46;;;;;;;1.83;1.13;;;6.80;99.90;;;;;;5025333;28;20187;-80
2021/05/26 03:55:15;;;;;;;2.43;0.83;;;6.80;99.90;;;;;;5025598;28;20205;-80
2021/05/26 03:57:40;;;;;;;2.43;1.00;;;6.80;99.90;;;;;;5026769;28;20450;-80
2021/05/26 04:00:08;;;;;;;4.53;1.10;;;6.80;99.90;;;;;;5025959;28;20449;-82
2021/05/26 04:02:37;;;;;;;1.53;1.20;;;6.80;99.90;;;;;;5026178;28;20205;-80
2021/05/26 04:05:04;;;;;;;2.47;1.30;;;6.60;99.90;;;;;;5025135;28;20183;-80
2021/05/26 04:07:30;;;;;;;1.53;1.03;;;6.60;99.90;;;;;;5026390;28;20492;-80
2021/05/26 04:09:56;;;;;;;2.77;1.20;;;6.50;99.90;;;;;;5026676;28;20170;-80
2021/05/26 04:12:24;;;;;;;1.60;0.93;;;6.50;99.90;;;;;;5025515;28;20179;-81
2021/05/26 04:14:50;;;;;;;4.00;1.07;;;6.50;99.90;;;;;;5029213;28;20452;-80
2021/05/26 04:17:16;;;;;;;5.27;1.30;;;6.50;99.90;;;;;;5030101;28;20422;-81
2021/05/26 04:19:41;;;;;;;1.30;1.10;;;6.40;99.90;;;;;;5025042;28;20422;-81
2021/05/26 04:22:07;;;;;;;2.47;1.40;;;6.40;99.90;;;;;;5026177;28;20178;-80
2021/05/26 04:24:33;;;;;;;1.70;1.17;;;6.50;99.90;;;;;;5024968;28;20301;-80
2021/05/26 04:26:58;;;;;;;4.13;1.13;;;6.40;99.90;;;;;;5025486;28;20199;-80
2021/05/26 04:29:24;;;;;;;6.97;1.20;;;6.30;99.90;;;;;;5025118;28;20657;-80
2021/05/26 04:31:51;;;;;;;1.63;1.20;;;6.20;99.90;;;;;;5025103;28;20179;-80
2021/05/26 04:34:16;;;;;;;1.57;0.87;;;6.20;99.90;;;;;;5023391;28;20206;-80
2021/05/26 04:36:42;;;;;;;2.50;1.10;;;6.20;99.90;;;;;;5025647;28;20500;-80
2021/05/26 04:39:08;;;;;;;1.33;1.20;;;6.20;99.90;;;;;;5028397;28;20182;-80
2021/05/26 04:41:34;;;;;;;2.20;1.10;;;6.20;99.90;;;;;;5028549;28;20197;-80
2021/05/26 04:44:00;;;;;;;2.47;0.90;;;6.30;99.90;;;;;;5028707;28;20571;-80
2021/05/26 04:46:26;;;;;;;3.03;1.10;;;6.30;99.90;;;;;;5028318;28;20209;-80
2021/05/26 04:48:51;;;;;;;1.17;1.07;;;6.40;99.90;;;;;;5027419;28;20175;-80
2021/05/26 04:51:17;;;;;;;1.67;1.30;;;6.50;99.90;;;;;;5028122;28;20198;-80
2021/05/26 04:53:43;;;;;;;5.93;1.43;;;6.50;99.90;;;;;;5042810;28;20213;-80
2021/05/26 04:56:08;;;;;;;1.50;1.40;;;6.60;99.90;;;;;;5028496;28;20182;-80
2021/05/26 04:58:34;;;;;;;2.00;0.97;;;6.70;99.90;;;;;;5030751;28;20179;-80
2021/05/26 05:01:00;;;;;;;1.97;1.20;;;6.70;99.90;;;;;;5037027;28;20182;-80
2021/05/26 05:03:25;;;;;;;3.43;1.10;;;6.80;99.90;;;;;;5045395;28;20201;-80
2021/05/26 05:05:51;;;;;;;2.17;0.97;;;6.80;99.90;;;;;;5028594;28;20175;-80
2021/05/26 05:08:17;;;;;;;1.83;0.97;;;6.80;99.90;;;;;;5027289;28;20178;-80
2021/05/26 05:10:42;;;;;;;1.97;0.90;;;6.80;99.90;;;;;;5027053;28;20179;-82
2021/05/26 05:13:08;;;;;;;2.30;1.10;;;6.90;99.90;;;;;;5027978;28;20195;-80
2021/05/26 05:15:34;;;;;;;1.93;1.17;;;6.90;99.90;;;;;;5028900;28;20179;-80
2021/05/26 05:17:59;;;;;;;1.13;1.00;;;7.00;99.90;;;;;;5027735;28;20273;-80
2021/05/26 05:20:25;;;;;;;2.53;1.07;;;7.10;99.90;;;;;;5027313;28;20269;-80
2021/05/26 05:22:53;;;;;;;1.43;1.00;;;7.10;99.90;;;;;;5033863;28;20692;-81
2021/05/26 05:25:19;;;;;;;2.77;0.90;;;7.20;99.90;;;;;;5037172;28;20445;-81
2021/05/26 05:27:45;;;;;;;2.40;1.10;;;7.30;99.90;;;;;;5026385;28;20198;-80
2021/05/26 05:30:12;;;;;;;3.83;1.23;;;7.40;99.90;;;;;;5027053;28;20516;-81
2021/05/26 05:32:38;;;;;;;1.83;1.30;;;7.40;99.90;;;;;;5027682;28;20175;-79
2021/05/26 05:35:05;;;;;;;2.17;1.20;;;7.50;99.90;;;;;;5033586;28;20182;-80
2021/05/26 05:37:31;;;;;;;2.97;1.33;;;7.60;99.90;;;;;;5037433;28;20448;-81
2021/05/26 05:39:57;;;;;;;3.20;1.03;;;7.70;99.90;;;;;;5037133;28;20179;-80
2021/05/26 05:42:23;;;;;;;2.07;1.03;;;7.80;99.90;;;;;;5027047;28;20177;-80
2021/05/26 05:44:49;;;;;;;1.37;1.23;;;7.90;99.90;;;;;;5024615;28;20210;-81
2021/05/26 05:47:14;;;;;;;1.67;1.20;;;8.00;99.90;;;;;;5024510;28;20206;-81
2021/05/26 05:49:40;;;;;;;2.37;1.13;;;8.10;99.90;;;;;;5026767;28;20179;-81
2021/05/26 05:52:11;;;;;;;1.83;1.07;;;8.30;99.90;;;;;;5026711;28;20171;-80
2021/05/26 05:54:37;;;;;;;1.40;1.00;;;8.30;99.90;;;;;;5027098;28;20227;-81
2021/05/26 05:57:04;;;;;;;2.50;1.20;;;8.20;99.90;;;;;;5028099;28;20179;-81
2021/05/26 05:59:30;;;;;;;1.40;0.90;;;8.40;99.90;;;;;;5027360;28;20209;-81
2021/05/26 06:01:55;;;;;;;2.00;0.80;;;8.40;99.90;;;;;;5024741;28;20182;-81
2021/05/26 06:04:21;;;;;;;3.10;1.27;;;8.60;99.90;;;;;;5026916;28;20262;-81
2021/05/26 06:06:47;;;;;;;2.07;0.90;;;8.70;99.90;;;;;;5024902;28;20234;-81
2021/05/26 06:09:12;;;;;;;1.73;0.93;;;8.90;99.90;;;;;;5026541;28;20171;-81
2021/05/26 06:11:38;;;;;;;1.27;0.77;;;9.00;99.90;;;;;;5026226;28;20175;-81
2021/05/26 06:14:08;;;;;;;1.90;1.10;;;9.20;99.90;;;;;;5026993;28;20204;-82
2021/05/26 06:16:35;;;;;;;5.50;0.83;;;9.40;99.90;;;;;;5025773;28;20185;-82
2021/05/26 06:19:00;;;;;;;3.20;1.17;;;9.50;99.90;;;;;;5027929;28;20641;-82
2021/05/26 06:21:27;;;;;;;5.37;1.07;;;9.50;99.90;;;;;;5026423;28;20182;-82
2021/05/26 06:23:52;;;;;;;5.67;1.20;;;9.70;99.90;;;;;;5025097;28;20312;-82
2021/05/26 06:26:18;;;;;;;2.67;1.03;;;9.80;99.90;;;;;;5026520;28;20210;-81
2021/05/26 06:28:44;;;;;;;1.07;0.83;;;9.70;99.90;;;;;;5023624;28;20183;-82
2021/05/26 06:31:10;;;;;;;1.47;1.00;;;9.70;99.90;;;;;;5026221;28;20178;-82
2021/05/26 06:33:35;;;;;;;2.80;1.10;;;9.80;99.90;;;;;;5025314;28;20573;-82
2021/05/26 06:36:01;;;;;;;3.37;1.07;;;9.90;99.90;;;;;;5026043;28;20185;-82
2021/05/26 06:38:27;;;;;;;1.50;0.97;;;10.10;99.90;;;;;;5025633;28;20194;-82
2021/05/26 06:40:53;;;;;;;4.47;1.40;;;10.30;99.90;;;;;;5028058;28;20171;-82
2021/05/26 06:43:18;;;;;;;1.53;1.00;;;10.40;99.90;;;;;;5025534;28;20212;-82
2021/05/26 06:45:44;;;;;;;2.83;1.17;;;10.40;99.90;;;;;;5024705;28;20184;-82
2021/05/26 06:48:10;;;;;;;2.00;1.30;;;10.50;99.90;;;;;;5026708;28;20288;-82
2021/05/26 06:50:36;;;;;;;2.60;0.90;;;10.50;99.90;;;;;;5026147;28;20189;-82
2021/05/26 06:53:02;;;;;;;1.53;0.90;;;10.60;99.90;;;;;;5026497;28;20707;-82
2021/05/26 06:55:28;;;;;;;6.10;1.30;;;10.70;99.90;;;;;;5027115;28;20175;-82
2021/05/26 06:57:53;;;;;;;2.10;1.00;;;10.90;99.90;;;;;;5025548;28;20189;-82
2021/05/26 07:00:19;;;;;;;2.07;0.70;;;11.10;99.90;;;;;;5026898;28;20184;-82
2021/05/26 07:02:45;;;;;;;0.70;0.60;;;11.40;99.90;;;;;;5025669;28;20211;-82
2021/05/26 07:05:11;;;;;;;2.33;0.90;;;11.50;99.90;;;;;;5026717;28;20179;-82
2021/05/26 07:07:37;;;;;;;1.40;0.77;;;11.60;99.90;;;;;;5027560;28;20262;-82
2021/05/26 07:10:03;;;;;;;2.40;0.80;;;11.70;99.90;;;;;;5026296;28;20174;-80
2021/05/26 07:12:30;;;;;;;0.87;0.73;;;11.90;99.90;;;;;;5026854;28;20656;-82
2021/05/26 07:14:56;;;;;;;1.70;0.93;;;11.90;99.90;;;;;;5026604;28;20194;-82
2021/05/26 07:17:21;;;;;;;3.73;1.10;;;12.20;99.90;;;;;;5025427;28;20186;-82
2021/05/26 07:19:47;;;;;;;1.40;0.73;;;12.40;99.90;;;;;;5026304;28;20186;-82
2021/05/26 07:22:13;;;;;;;2.00;0.87;;;12.80;99.90;;;;;;5026505;28;20175;-82
2021/05/26 07:24:38;;;;;;;1.47;0.80;;;13.00;99.90;;;;;;5024966;28;20225;-82
2021/05/26 07:27:04;;;;;;;3.27;0.83;;;13.00;99.90;;;;;;5025970;28;20282;-83
2021/05/26 07:29:31;;;;;;;1.90;0.77;;;13.00;99.90;;;;;;5026749;28;20199;-82
2021/05/26 07:31:57;;;;;;;3.33;0.90;;;13.00;99.90;;;;;;5031000;28;20185;-80
2021/05/26 07:34:22;;;;;;;2.50;1.00;;;12.90;99.90;;;;;;5027597;28;20214;-81
2021/05/26 07:36:48;;;;;;;5.17;0.90;;;12.90;99.90;;;;;;5027721;28;20216;-82
2021/05/26 07:39:14;;;;;;;1.13;0.80;;;12.80;99.90;;;;;;5032017;28;20174;-82
2021/05/26 07:41:39;;;;;;;2.20;0.93;;;12.80;99.90;;;;;;5029199;28;20235;-82
2021/05/26 07:44:05;;;;;;;1.93;0.80;;;12.80;99.90;;;;;;5026584;28;20252;-82
2021/05/26 07:46:31;;;;;;;1.47;0.93;;;12.80;99.90;;;;;;5029337;28;20206;-82
2021/05/26 07:48:57;;;;;;;1.43;0.70;;;12.90;99.90;;;;;;5025801;28;20181;-82
2021/05/26 07:51:33;;;;;;;2.70;1.00;;;12.90;99.90;;;;;;5026915;28;20167;-82
2021/05/26 07:54:01;;;;;;;1.73;0.80;;;12.90;99.90;;;;;;5026109;28;20198;-82
2021/05/26 07:56:28;;;;;;;4.07;0.90;;;12.90;99.90;;;;;;5027297;28;20243;-82
2021/05/26 07:58:54;;;;;;;5.27;0.97;;;12.90;99.90;;;;;;5025302;28;20178;-82
2021/05/26 08:01:20;;;;;;;1.90;0.83;;;12.80;99.90;;;;;;5026510;28;20171;-82
2021/05/26 08:03:45;;;;;;;1.57;0.80;;;12.70;99.90;;;;;;5026050;28;20201;-82
2021/05/26 08:06:12;;;;;;;2.63;1.00;;;12.70;99.90;;;;;;5026655;28;20209;-83
2021/05/26 08:08:38;;;;;;;1.87;0.80;;;12.70;99.90;;;;;;5025795;28;20185;-82
2021/05/26 08:11:05;;;;;;;4.00;0.73;;;12.70;99.90;;;;;;5027301;28;20188;-82
2021/05/26 08:13:31;;;;;;;3.07;1.10;;;12.80;99.90;;;;;;5031425;28;20210;-82
2021/05/26 08:15:57;;;;;;;3.83;1.00;;;12.90;99.90;;;;;;5031448;28;20178;-82
2021/05/26 08:18:22;;;;;;;3.17;0.90;;;13.00;99.90;;;;;;5030763;28;20171;-82
2021/05/26 08:20:48;;;;;;;2.30;1.07;;;13.10;99.90;;;;;;5030393;28;20175;-82
2021/05/26 08:23:15;;;;;;;2.43;1.00;;;13.10;99.90;;;;;;5031422;28;20194;-82
2021/05/26 08:25:41;;;;;;;2.60;0.83;;;13.10;99.90;;;;;;5030104;28;20190;-82
2021/05/26 08:28:07;;;;;;;2.57;0.90;;;13.00;99.90;;;;;;5027705;28;20202;-83
2021/05/26 08:30:33;;;;;;;2.10;0.80;;;12.80;99.90;;;;;;5029489;28;20178;-82
2021/05/26 08:32:59;;;;;;;3.93;1.07;;;12.90;99.90;;;;;;5036909;28;20266;-82
2021/05/26 08:35:26;;;;;;;2.33;0.90;;;12.90;99.90;;;;;;5033197;28;20190;-83
2021/05/26 08:37:52;;;;;;;4.53;1.30;;;12.90;99.90;;;;;;5031212;28;20183;-82
2021/05/26 08:40:19;;;;;;;1.50;0.90;;;13.00;99.90;;;;;;5030723;28;20179;-82
2021/05/26 08:42:45;;;;;;;2.17;1.03;;;13.10;99.90;;;;;;5032672;28;20238;-82
2021/05/26 08:45:12;;;;;;;3.50;1.00;;;13.10;99.90;;;;;;5032679;28;20183;-82
2021/05/26 08:47:42;;;;;;;3.03;1.53;;;13.00;99.90;;;;;;5033506;28;20293;-83
2021/05/26 08:50:08;;;;;;;1.77;1.10;;;13.00;99.90;;;;;;5034268;28;20247;-82
2021/05/26 08:52:34;;;;;;;1.83;0.90;;;13.20;99.90;;;;;;5038139;28;20210;-83
2021/05/26 08:55:01;;;;;;;1.77;0.80;;;13.20;99.90;;;;;;5038082;28;20198;-82
2021/05/26 08:57:27;;;;;;;3.23;1.53;;;13.30;99.90;;;;;;5033033;28;20224;-82
2021/05/26 08:59:53;;;;;;;2.70;0.83;;;13.20;99.90;;;;;;5029442;28;20228;-82
2021/05/26 09:02:19;;;;;;;2.10;1.10;;;13.20;99.90;;;;;;5028432;28;20723;-82
2021/05/26 09:04:44;;;;;;;2.13;0.97;;;13.20;99.90;;;;;;5029441;28;20202;-82
2021/05/26 09:07:13;;;;;;;3.07;0.93;;;13.20;99.90;;;;;;5030426;28;20198;-82
2021/05/26 09:10:03;;;;;;;1.13;1.07;;;13.10;99.90;;;;;;5030081;28;20178;-82
2021/05/26 09:12:43;;;;;;;4.50;1.10;;;13.10;99.90;;;;;;5029612;28;20174;-83
2021/05/26 09:15:10;;;;;;;1.77;0.90;;;13.10;99.90;;;;;;5030205;28;20201;-82
2021/05/26 09:17:35;;;;;;;1.40;0.70;;;13.20;99.90;;;;;;5028344;28;20186;-82
2021/05/26 09:20:26;;;;;;;1.67;0.90;;;13.30;99.90;;;;;;5029958;28;20179;-82
2021/05/26 09:23:00;;;;;;;1.53;0.83;;;13.50;99.90;;;;;;5027649;28;20190;-83
2021/05/26 09:25:27;;;;;;;2.30;0.83;;;13.60;99.90;;;;;;5028843;28;20201;-82
2021/05/26 09:28:13;;;;;;;1.60;0.97;;;13.60;99.90;;;;;;5028640;28;20199;-82
2021/05/26 09:30:38;;;;;;;2.53;1.20;;;13.60;99.90;;;;;;5028873;28;20238;-82
2021/05/26 09:33:26;;;;;;;1.63;1.03;;;13.60;99.70;;;;;;5027198;28;20543;-82
2021/05/26 09:36:12;;;;;;;3.10;1.17;;;13.60;99.90;;;;;;5027574;28;20186;-82
2021/05/26 09:38:40;;;;;;;1.87;1.00;;;13.70;99.90;;;;;;5028346;28;20254;-83
2021/05/26 09:41:10;;;;;;;2.67;0.83;;;13.80;99.80;;;;;;5033300;28;20226;-82
2021/05/26 09:43:40;;;;;;;1.87;0.80;;;14.00;99.50;;;;;;5027605;28;20202;-82
2021/05/26 09:46:28;;;;;;;2.37;1.10;;;14.10;98.80;;;;;;5028947;28;20171;-82
2021/05/26 09:49:02;;;;;;;2.73;1.20;;;14.10;98.50;;;;;;5027876;28;20641;-82
2021/05/26 09:51:36;;;;;;;2.53;1.00;;;14.20;98.90;;;;;;5028018;28;20179;-83
2021/05/26 09:54:13;;;;;;;2.40;0.80;;;14.20;99.00;;;;;;5028396;28;20194;-82
2021/05/26 09:56:40;;;;;;;1.70;0.83;;;14.30;98.30;;;;;;5027696;28;20205;-83
2021/05/26 09:59:06;;;;;;;2.70;1.00;;;14.20;98.60;;;;;;5027868;28;20599;-82
2021/05/26 10:01:32;;;;;;;1.93;1.00;;;14.10;99.00;;;;;;5028211;28;20186;-82
2021/05/26 10:03:59;;;;;;;1.27;0.93;;;14.00;99.20;;;;;;5028248;28;20230;-82
2021/05/26 10:06:27;;;;;;;1.83;0.87;;;14.10;99.10;;;;;;5029518;28;20198;-83
2021/05/26 10:08:55;;;;;;;2.80;1.27;;;14.10;98.90;;;;;;5029214;28;20183;-83
2021/05/26 10:11:21;;;;;;;2.70;1.20;;;13.90;99.00;;;;;;5030614;28;20181;-81
2021/05/26 10:13:49;;;;;;;3.63;1.10;;;14.10;99.00;;;;;;5027813;28;20191;-80
2021/05/26 10:16:18;;;;;;;1.97;0.80;;;14.10;99.20;;;;;;5028316;28;20199;-81
2021/05/26 10:18:45;;;;;;;1.07;0.90;;;13.90;98.60;;;;;;5028240;28;20175;-81
2021/05/26 10:21:15;;;;;;;2.07;0.83;;;13.90;99.00;;;;;;5028696;28;20302;-80
2021/05/26 10:23:42;;;;;;;3.17;1.60;;;13.70;99.70;;;;;;5026517;28;20691;-80
2021/05/26 10:26:08;;;;;;;2.70;1.30;;;13.70;99.80;;;;;;5026464;28;20265;-80
2021/05/26 10:28:33;;;;;;;3.97;1.00;;;13.70;99.90;;;;;;5027266;28;20179;-81
2021/05/26 10:31:04;;;;;;;2.53;1.07;;;13.70;99.80;;;;;;5027743;28;20238;-80
2021/05/26 10:33:42;;;;;;;1.40;1.00;;;13.80;99.90;;;;;;5025861;28;20199;-81
2021/05/26 10:36:10;;;;;;;2.77;1.07;;;13.80;99.90;;;;;;5026495;28;20179;-81
2021/05/26 10:38:56;;;;;;;1.70;1.20;;;13.80;99.90;;;;;;5026228;28;20179;-80
2021/05/26 10:41:22;;;;;;;2.13;1.20;;;13.70;99.90;;;;;;5026383;28;20205;-81
2021/05/26 10:43:53;;;;;;;2.90;1.03;;;13.80;99.90;;;;;;5026115;28;20199;-81
2021/05/26 10:46:35;;;;;;;2.50;0.80;;;13.70;99.90;;;;;;5025860;28;20206;-81
2021/05/26 10:49:03;;;;;;;2.87;0.87;;;13.70;99.90;;;;;;5025736;28;20206;-81
2021/05/26 10:51:51;;;;;;;2.17;1.10;;;13.60;99.90;;;;;;5023806;28;20228;-81
2021/05/26 10:54:39;;;;;;;2.20;1.30;;;13.50;99.90;;;;;;5024615;28;20225;-81
2021/05/26 10:57:07;;;;;;;2.70;1.20;;;13.40;99.90;;;;;;5023842;28;20194;-81
2021/05/26 10:59:33;;;;;;;1.77;0.83;;;13.40;99.90;;;;;;5023302;28;20185;-81
2021/05/26 11:02:11;;;;;;;3.57;1.20;;;13.40;99.90;;;;;;5022753;28;20179;-81
2021/05/26 11:04:38;;;;;;;1.33;0.80;;;13.30;99.90;;;;;;5025143;28;20200;-81
2021/05/26 11:07:19;;;;;;;2.13;0.77;;;13.30;99.90;;;;;;5024369;28;20207;-81
2021/05/26 11:10:01;;;;;;;2.33;0.97;;;13.30;99.90;;;;;;5024281;28;20232;-80
2021/05/26 11:12:28;;;;;;;3.33;1.10;;;13.30;99.90;;;;;;5023933;28;20186;-81
2021/05/26 11:14:55;;;;;;;1.77;1.10;;;13.30;99.90;;;;;;5023391;28;20252;-80
2021/05/26 11:17:27;;;;;;;3.10;0.97;;;13.30;99.90;;;;;;5022708;28;20198;-81
2021/05/26 11:20:14;;;;;;;4.47;1.17;;;13.40;99.90;;;;;;5030433;28;20187;-81
2021/05/26 11:22:40;;;;;;;4.30;1.20;;;13.40;99.90;;;;;;5025050;28;20183;-81
2021/05/26 11:25:09;;;;;;;2.23;1.20;;;13.40;99.90;;;;;;5025634;28;20233;-81
2021/05/26 11:27:34;;;;;;;4.53;1.00;;;13.50;99.90;;;;;;5025666;28;20806;-81
2021/05/26 11:30:03;;;;;;;1.50;1.10;;;13.50;99.90;;;;;;5025616;28;20187;-81
2021/05/26 11:32:29;;;;;;;1.37;0.93;;;13.70;99.90;;;;;;5027147;28;20503;-81
2021/05/26 11:34:57;;;;;;;2.80;1.00;;;13.70;99.90;;;;;;5025703;28;20198;-81
2021/05/26 11:37:31;;;;;;;1.43;1.10;;;13.80;99.90;;;;;;5025236;28;20229;-80
2021/05/26 11:39:57;;;;;;;4.97;1.73;;;13.80;99.90;;;;;;5025392;28;20285;-80
2021/05/26 11:42:29;;;;;;;1.63;1.30;;;13.80;99.90;;;;;;5024022;28;20175;-81
2021/05/26 11:45:06;;;;;;;1.40;0.93;;;13.90;99.90;;;;;;5022021;28;20221;-81
2021/05/26 11:47:42;;;;;;;3.10;0.97;;;13.90;99.90;;;;;;5018258;28;20199;-81
2021/05/26 11:50:14;;;;;;;3.20;1.20;;;14.00;99.90;;;;;;5024239;28;20170;-81
2021/05/26 11:52:41;;;;;;;2.30;1.30;;;14.00;99.90;;;;;;5024712;28;20175;-81
2021/05/26 11:55:06;;;;;;;2.43;1.23;;;14.10;99.90;;;;;;5025226;28;20186;-81
2021/05/26 11:57:37;;;;;;;1.40;0.97;;;14.10;99.90;;;;;;5027148;28;20183;-82
2021/05/26 12:00:09;;;;;;;2.30;1.00;;;14.20;99.90;;;;;;5024520;28;20175;-81
2021/05/26 12:02:35;;;;;;;2.10;1.10;;;14.30;99.90;;;;;;5022785;28;20214;-81
2021/05/26 12:05:01;;;;;;;2.97;1.13;;;14.30;99.90;;;;;;5026257;28;20179;-82
2021/05/26 12:07:28;;;;;;;3.27;1.27;;;14.10;99.90;;;;;;5028868;28;20211;-82
2021/05/26 12:10:02;;;;;;;2.23;1.10;;;14.10;99.90;;;;;;5022957;28;20652;-82
2021/05/26 12:12:28;;;;;;;2.87;0.90;;;13.90;99.90;;;;;;5024545;28;20170;-82
2021/05/26 12:14:54;;;;;;;4.17;1.03;;;13.90;99.90;;;;;;5025276;28;20199;-83
2021/05/26 12:17:22;;;;;;;3.97;1.30;;;13.90;99.90;;;;;;5025120;28;20182;-83
2021/05/26 12:19:50;;;;;;;3.33;1.33;;;14.00;99.90;;;;;;5020667;28;20642;-83
2021/05/26 12:22:18;;;;;;;3.27;1.10;;;14.10;99.90;;;;;;5027923;28;20229;-84
2021/05/26 12:24:59;;;;;;;2.97;1.10;;;14.30;99.90;;;;;;5026129;28;20223;-83
2021/05/26 12:27:48;;;;;;;3.57;1.40;;;14.50;99.90;;;;;;5026431;28;20242;-84
2021/05/26 12:30:16;;;;;;;5.87;1.87;;;14.60;99.90;;;;;;5025735;28;20174;-81
2021/05/26 12:32:43;;;;;;;3.27;1.37;;;14.60;99.90;;;;;;5025647;28;20183;-82
2021/05/26 12:35:20;;;;;;;3.37;1.03;;;14.60;99.90;;;;;;5028528;28;20167;-81
2021/05/26 12:37:48;;;;;;;1.63;1.20;;;14.60;99.90;;;;;;5024553;28;20605;-80
2021/05/26 12:40:40;;;;;;;3.07;1.23;;;14.70;99.90;;;;;;5025344;28;20191;-81
2021/05/26 12:43:30;;;;;;;3.80;1.27;;;14.60;99.90;;;;;;5025408;28;20198;-80
2021/05/26 12:45:57;;;;;;;3.77;1.30;;;14.60;99.90;;;;;;5024150;28;20207;-83
2021/05/26 12:48:29;;;;;;;3.47;1.33;;;14.50;99.90;;;;;;5025061;28;20198;-81
2021/05/26 12:50:59;;;;;;;3.63;1.40;;;14.60;99.90;;;;;;5024108;28;20179;-82
2021/05/26 12:53:31;;;;;;;3.53;1.43;;;14.60;99.90;;;;;;5024992;28;20731;-82
2021/05/26 12:55:58;;;;;;;5.20;1.47;;;14.70;99.90;;;;;;5023872;28;20167;-81